createdAt,value
2017-07-19T00:00:02.546Z,16.20
2017-07-19T00:02:30.170Z,16.20
2017-07-19T00:04:57.832Z,16.20
2017-07-19T00:07:25.477Z,16.10
2017-07-19T00:09:53.111Z,16.10
2017-07-19T00:12:20.788Z,16.10
2017-07-19T00:14:48.426Z,16.10
2017-07-19T00:17:16.073Z,16.10
2017-07-19T00:19:43.747Z,16.10
2017-07-19T00:22:11.395Z,16.10
2017-07-19T00:24:39.019Z,16.00
2017-07-19T00:27:06.682Z,15.90
2017-07-19T00:29:34.313Z,15.90
2017-07-19T00:32:01.943Z,15.90
2017-07-19T00:34:29.609Z,15.90
2017-07-19T00:36:57.256Z,16.00
2017-07-19T00:39:24.884Z,16.00
2017-07-19T00:41:52.548Z,16.00
2017-07-19T00:44:20.180Z,15.90
2017-07-19T00:46:47.828Z,15.90
2017-07-19T00:49:15.487Z,15.90
2017-07-19T00:51:43.120Z,15.80
2017-07-19T00:54:10.765Z,15.80
2017-07-19T00:56:38.449Z,15.80
2017-07-19T00:59:06.072Z,15.80
2017-07-19T01:01:33.706Z,15.80
2017-07-19T01:04:01.375Z,15.80
2017-07-19T01:06:29.017Z,15.70
2017-07-19T01:08:56.651Z,15.70
2017-07-19T01:11:24.313Z,15.70
2017-07-19T01:13:52.744Z,15.60
2017-07-19T01:16:20.393Z,15.60
2017-07-19T01:18:48.061Z,15.60
2017-07-19T01:21:15.701Z,15.60
2017-07-19T01:23:43.353Z,15.60
2017-07-19T01:26:11.016Z,15.50
2017-07-19T01:28:38.662Z,15.40
2017-07-19T01:31:06.290Z,15.40
2017-07-19T01:33:33.969Z,15.40
2017-07-19T01:36:02.371Z,15.40
2017-07-19T01:38:30.009Z,15.30
2017-07-19T01:40:57.697Z,15.40
2017-07-19T01:43:25.344Z,15.40
2017-07-19T01:45:53.020Z,15.40
2017-07-19T01:48:20.693Z,15.30
2017-07-19T01:50:48.388Z,15.30
2017-07-19T01:53:16.031Z,15.30
2017-07-19T01:55:43.696Z,15.20
2017-07-19T01:58:11.324Z,15.20
2017-07-19T02:00:38.968Z,15.30
2017-07-19T02:03:06.632Z,15.30
2017-07-19T02:05:34.260Z,15.20
2017-07-19T02:08:01.910Z,15.20
2017-07-19T02:10:29.580Z,15.20
2017-07-19T02:12:57.220Z,15.10
2017-07-19T02:15:24.853Z,15.10
2017-07-19T02:17:52.525Z,15.10
2017-07-19T02:20:20.918Z,15.00
2017-07-19T02:22:48.559Z,15.00
2017-07-19T02:25:16.991Z,15.00
2017-07-19T02:27:44.620Z,15.00
2017-07-19T02:30:12.283Z,15.00
2017-07-19T02:32:39.948Z,15.00
2017-07-19T02:35:08.331Z,15.00
2017-07-19T02:37:35.971Z,14.90
2017-07-19T02:40:04.415Z,14.80
2017-07-19T02:42:32.826Z,14.80
2017-07-19T02:45:00.478Z,14.80
2017-07-19T02:47:28.160Z,14.80
2017-07-19T02:49:55.783Z,14.80
2017-07-19T02:52:23.420Z,14.90
2017-07-19T02:54:51.087Z,14.90
2017-07-19T02:57:18.733Z,15.00
2017-07-19T02:59:46.372Z,14.90
2017-07-19T03:02:14.035Z,14.80
2017-07-19T03:04:41.677Z,14.80
2017-07-19T03:07:09.319Z,14.90
2017-07-19T03:09:36.980Z,14.80
2017-07-19T03:12:04.627Z,14.70
2017-07-19T03:14:32.284Z,14.70
2017-07-19T03:16:59.957Z,14.70
2017-07-19T03:19:27.597Z,14.70
2017-07-19T03:21:55.328Z,14.70
2017-07-19T03:24:22.990Z,14.80
2017-07-19T03:26:51.376Z,14.90
2017-07-19T03:29:19.013Z,14.80
2017-07-19T03:31:46.698Z,14.80
2017-07-19T03:34:14.342Z,14.70
2017-07-19T03:36:42.007Z,14.80
2017-07-19T03:39:09.679Z,14.80
2017-07-19T03:41:38.079Z,14.80
2017-07-19T03:44:05.713Z,14.80
2017-07-19T03:46:33.379Z,14.80
2017-07-19T03:49:01.011Z,14.80
2017-07-19T03:51:28.635Z,14.90
2017-07-19T03:53:57.074Z,14.90
2017-07-19T03:56:24.712Z,14.80
2017-07-19T03:58:52.349Z,14.90
2017-07-19T04:01:20.016Z,14.90
2017-07-19T04:03:47.784Z,15.00
2017-07-19T04:06:16.197Z,15.10
2017-07-19T04:08:43.884Z,15.00
2017-07-19T04:11:11.521Z,15.10
2017-07-19T04:13:39.179Z,15.20
2017-07-19T04:16:06.844Z,15.20
2017-07-19T04:18:35.248Z,15.30
2017-07-19T04:21:02.893Z,15.20
2017-07-19T04:23:30.563Z,15.30
2017-07-19T04:25:58.211Z,15.50
2017-07-19T04:28:25.853Z,15.50
2017-07-19T04:30:53.525Z,15.60
2017-07-19T04:33:21.169Z,15.70
2017-07-19T04:35:48.810Z,15.80
2017-07-19T04:38:16.552Z,16.00
2017-07-19T04:40:44.183Z,16.10
2017-07-19T04:43:11.830Z,16.20
2017-07-19T04:45:39.508Z,16.40
2017-07-19T04:48:07.154Z,16.50
2017-07-19T04:50:35.582Z,16.80
2017-07-19T04:53:03.300Z,16.80
2017-07-19T04:55:31.051Z,17.00
2017-07-19T04:57:58.693Z,17.20
2017-07-19T05:00:26.388Z,17.40
2017-07-19T05:02:54.000Z,17.60
2017-07-19T05:05:21.608Z,17.70
2017-07-19T05:07:50.045Z,18.00
2017-07-19T05:10:17.683Z,17.90
2017-07-19T05:12:45.292Z,18.20
2017-07-19T05:15:13.717Z,18.50
2017-07-19T05:17:41.318Z,18.40
2017-07-19T05:20:08.928Z,18.70
2017-07-19T05:22:36.577Z,18.90
2017-07-19T05:25:04.189Z,19.00
2017-07-19T05:27:31.807Z,19.20
2017-07-19T05:29:59.448Z,19.30
2017-07-19T05:32:27.064Z,19.40
2017-07-19T05:34:54.672Z,19.60
2017-07-19T05:37:22.549Z,19.80
2017-07-19T05:39:50.161Z,20.00
2017-07-19T05:42:17.774Z,20.10
2017-07-19T05:44:45.423Z,20.30
2017-07-19T05:47:13.054Z,20.40
2017-07-19T05:49:41.529Z,20.70
2017-07-19T05:52:09.176Z,20.60
2017-07-19T05:54:37.561Z,21.10
2017-07-19T05:57:05.185Z,21.00
2017-07-19T05:59:33.592Z,21.30
2017-07-19T06:02:01.230Z,21.20
2017-07-19T06:04:28.835Z,21.40
2017-07-19T06:06:57.237Z,21.80
2017-07-19T06:09:24.859Z,21.80
2017-07-19T06:11:52.470Z,22.10
2017-07-19T06:14:20.123Z,22.60
2017-07-19T06:16:47.737Z,23.50
2017-07-19T06:19:15.339Z,24.20
2017-07-19T06:21:43.742Z,25.10
2017-07-19T06:24:11.361Z,25.00
2017-07-19T06:26:38.961Z,25.50
2017-07-19T06:29:06.599Z,25.70
2017-07-19T06:31:34.212Z,25.90
2017-07-19T06:34:01.817Z,26.10
2017-07-19T06:36:29.452Z,26.60
2017-07-19T06:38:57.052Z,27.00
2017-07-19T06:41:24.656Z,27.30
2017-07-19T06:43:52.302Z,27.80
2017-07-19T06:46:20.681Z,28.60
2017-07-19T06:48:49.081Z,29.20
2017-07-19T06:51:16.726Z,29.10
2017-07-19T06:53:44.354Z,29.80
2017-07-19T06:56:11.956Z,30.50
2017-07-19T06:58:39.590Z,30.80
2017-07-19T07:01:07.194Z,31.00
2017-07-19T07:03:34.808Z,30.00
2017-07-19T07:06:03.216Z,30.90
2017-07-19T07:08:30.821Z,30.80
2017-07-19T07:10:59.198Z,31.70
2017-07-19T07:13:26.834Z,31.50
2017-07-19T07:15:55.226Z,32.50
2017-07-19T07:18:22.841Z,32.50
2017-07-19T07:20:50.479Z,32.50
2017-07-19T07:23:18.094Z,33.10
2017-07-19T07:25:45.699Z,33.00
2017-07-19T07:28:13.342Z,33.00
2017-07-19T07:30:40.972Z,33.10
2017-07-19T07:33:09.340Z,33.80
2017-07-19T07:35:37.759Z,33.50
2017-07-19T07:38:05.367Z,33.50
2017-07-19T07:40:33.064Z,33.00
2017-07-19T07:43:00.703Z,33.70
2017-07-19T07:45:28.303Z,34.00
2017-07-19T07:47:55.906Z,33.80
2017-07-19T07:50:23.541Z,33.70
2017-07-19T07:52:51.163Z,33.50
2017-07-19T07:55:18.805Z,34.10
2017-07-19T07:57:46.454Z,34.60
2017-07-19T08:00:14.063Z,34.20
2017-07-19T08:02:42.450Z,33.60
2017-07-19T08:05:10.080Z,33.50
2017-07-19T08:07:38.460Z,34.10
2017-07-19T08:10:06.083Z,34.10
2017-07-19T08:12:34.511Z,34.30
2017-07-19T08:15:02.118Z,34.20
2017-07-19T08:17:29.739Z,34.00
2017-07-19T08:19:58.144Z,34.90
2017-07-19T08:22:25.752Z,34.80
2017-07-19T08:24:54.117Z,34.50
2017-07-19T08:27:21.760Z,34.40
2017-07-19T08:29:50.133Z,34.90
2017-07-19T08:32:18.528Z,35.90
2017-07-19T08:34:46.168Z,35.70
2017-07-19T08:37:13.769Z,35.40
2017-07-19T08:39:41.380Z,35.40
2017-07-19T08:42:09.029Z,35.00
2017-07-19T08:44:36.636Z,35.70
2017-07-19T08:47:04.253Z,35.10
2017-07-19T08:49:31.903Z,34.50
2017-07-19T08:51:59.525Z,34.80
2017-07-19T08:54:27.133Z,34.80
2017-07-19T08:56:54.784Z,34.60
2017-07-19T08:59:22.405Z,34.70
2017-07-19T09:01:50.028Z,35.30
2017-07-19T09:04:17.670Z,36.00
2017-07-19T09:06:45.284Z,35.60
2017-07-19T09:11:50.515Z,35.20
2017-07-19T09:14:18.165Z,35.10
2017-07-19T09:16:45.789Z,34.90
2017-07-19T09:19:13.437Z,34.80
2017-07-19T09:21:41.089Z,35.70
2017-07-19T09:24:08.702Z,35.60
2017-07-19T09:26:36.354Z,36.20
2017-07-19T09:29:03.975Z,36.60
2017-07-19T09:31:31.585Z,36.70
2017-07-19T09:33:59.243Z,36.20
2017-07-19T09:36:26.862Z,36.00
2017-07-19T09:38:54.475Z,36.20
2017-07-19T09:41:22.137Z,36.30
2017-07-19T09:43:49.741Z,36.00
2017-07-19T09:46:17.340Z,36.60
2017-07-19T09:48:44.989Z,36.60
2017-07-19T09:51:12.588Z,37.10
2017-07-19T09:53:40.192Z,36.70
2017-07-19T09:56:07.854Z,36.10
2017-07-19T09:58:35.470Z,36.10
2017-07-19T10:01:03.081Z,35.90
2017-07-19T10:03:31.492Z,35.40
2017-07-19T10:05:59.113Z,35.30
2017-07-19T10:08:26.729Z,35.20
2017-07-19T10:10:54.380Z,34.70
2017-07-19T10:13:22.754Z,34.80
2017-07-19T10:15:50.374Z,34.70
2017-07-19T10:18:18.371Z,34.80
2017-07-19T10:20:45.992Z,35.10
2017-07-19T10:23:14.380Z,35.80
2017-07-19T10:25:42.036Z,35.80
2017-07-19T10:28:09.657Z,35.50
2017-07-19T10:30:38.047Z,33.70
2017-07-19T10:33:05.697Z,33.60
2017-07-19T10:35:33.318Z,33.90
2017-07-19T10:38:00.926Z,34.60
2017-07-19T10:40:28.570Z,35.20
2017-07-19T10:42:56.180Z,34.90
2017-07-19T10:45:23.788Z,35.40
2017-07-19T10:47:51.442Z,35.40
2017-07-19T10:50:19.804Z,36.00
2017-07-19T10:52:48.185Z,35.90
2017-07-19T10:55:15.846Z,35.80
2017-07-19T10:57:43.479Z,36.10
2017-07-19T11:00:11.102Z,36.40
2017-07-19T11:02:39.522Z,36.00
2017-07-19T11:05:07.126Z,36.00
2017-07-19T11:07:34.740Z,35.70
2017-07-19T11:10:02.377Z,35.70
2017-07-19T11:12:29.983Z,35.10
2017-07-19T11:14:57.601Z,34.90
2017-07-19T11:17:26.023Z,34.60
2017-07-19T11:19:53.636Z,34.60
2017-07-19T11:22:21.243Z,34.50
2017-07-19T11:24:48.894Z,34.70
2017-07-19T11:27:17.262Z,35.10
2017-07-19T11:29:45.647Z,35.20
2017-07-19T11:32:13.309Z,35.10
2017-07-19T11:34:40.921Z,34.90
2017-07-19T11:37:09.297Z,35.10
2017-07-19T11:39:36.952Z,35.00
2017-07-19T11:42:04.570Z,34.70
2017-07-19T11:44:32.943Z,33.70
2017-07-19T11:47:01.349Z,33.70
2017-07-19T11:49:28.957Z,33.70
2017-07-19T11:51:56.564Z,33.20
2017-07-19T11:54:24.209Z,32.70
2017-07-19T11:56:51.817Z,32.70
2017-07-19T11:59:19.431Z,32.30
2017-07-19T12:01:47.832Z,31.80
2017-07-19T12:04:15.452Z,31.70
2017-07-19T12:06:43.838Z,31.90
2017-07-19T12:09:11.510Z,31.80
2017-07-19T12:11:39.117Z,32.00
2017-07-19T12:14:06.719Z,31.80
2017-07-19T12:16:34.379Z,31.50
2017-07-19T12:19:02.781Z,31.50
2017-07-19T12:21:30.398Z,31.40
2017-07-19T12:23:58.048Z,31.50
2017-07-19T12:26:26.415Z,31.40
2017-07-19T12:28:54.793Z,31.30
2017-07-19T12:31:22.457Z,31.20
2017-07-19T12:33:50.084Z,31.00
2017-07-19T12:36:17.685Z,30.80
2017-07-19T12:38:45.324Z,30.60
2017-07-19T12:41:12.948Z,30.70
2017-07-19T12:43:40.581Z,30.90
2017-07-19T12:46:08.252Z,31.00
2017-07-19T12:48:35.865Z,31.00
2017-07-19T12:51:03.467Z,31.20
2017-07-19T12:53:31.107Z,31.30
2017-07-19T12:55:58.731Z,31.20
2017-07-19T12:58:26.362Z,31.10
2017-07-19T13:00:54.028Z,31.10
2017-07-19T13:03:21.638Z,30.80
2017-07-19T13:05:49.242Z,30.80
2017-07-19T13:08:16.893Z,30.60
2017-07-19T13:10:44.506Z,30.60
2017-07-19T13:13:12.122Z,30.50
2017-07-19T13:15:39.757Z,30.50
2017-07-19T13:18:07.371Z,30.60
2017-07-19T13:20:34.982Z,30.70
2017-07-19T13:23:02.612Z,30.80
2017-07-19T13:25:30.209Z,31.00
2017-07-19T13:27:57.817Z,31.10
2017-07-19T13:30:25.469Z,31.30
2017-07-19T13:32:53.100Z,31.20
2017-07-19T13:35:20.718Z,31.10
2017-07-19T13:37:49.123Z,30.90
2017-07-19T13:40:16.736Z,30.80
2017-07-19T13:42:45.125Z,30.70
2017-07-19T13:45:12.769Z,30.70
2017-07-19T13:47:40.385Z,30.70
2017-07-19T13:50:08.763Z,30.90
2017-07-19T13:52:36.422Z,30.90
2017-07-19T13:55:04.112Z,30.80
2017-07-19T13:57:31.726Z,30.80
2017-07-19T13:59:59.370Z,30.90
2017-07-19T14:02:26.990Z,30.90
2017-07-19T14:04:55.369Z,31.10
2017-07-19T14:07:23.021Z,31.00
2017-07-19T14:09:50.626Z,31.20
2017-07-19T14:12:18.238Z,31.20
2017-07-19T14:14:45.901Z,31.30
2017-07-19T14:17:13.500Z,31.40
2017-07-19T14:19:41.128Z,31.30
2017-07-19T14:22:09.541Z,30.90
2017-07-19T14:24:37.161Z,30.90
2017-07-19T14:27:04.771Z,30.90
2017-07-19T14:29:32.399Z,30.80
2017-07-19T14:32:00.001Z,30.90
2017-07-19T14:34:27.609Z,30.80
2017-07-19T14:36:56.022Z,30.60
2017-07-19T14:39:23.652Z,30.60
2017-07-19T14:41:51.266Z,30.60
2017-07-19T14:44:19.282Z,30.60
2017-07-19T14:46:46.898Z,30.60
2017-07-19T14:49:14.508Z,30.50
2017-07-19T14:51:42.161Z,30.20
2017-07-19T14:54:10.528Z,30.30
2017-07-19T14:56:38.123Z,30.20
2017-07-19T14:59:05.808Z,30.30
2017-07-19T15:01:33.457Z,30.40
2017-07-19T15:04:02.444Z,30.50
2017-07-19T15:06:30.264Z,30.40
2017-07-19T15:08:57.878Z,30.40
2017-07-19T15:11:25.528Z,30.40
2017-07-19T15:13:53.250Z,30.30
2017-07-19T15:16:21.426Z,30.30
2017-07-19T15:18:49.076Z,30.20
2017-07-19T15:21:16.709Z,30.20
2017-07-19T15:23:44.322Z,30.10
2017-07-19T15:26:11.935Z,30.00
2017-07-19T15:28:39.576Z,30.00
2017-07-19T15:31:07.213Z,29.90
2017-07-19T15:33:34.820Z,30.00
2017-07-19T15:36:03.221Z,30.00
2017-07-19T15:38:30.833Z,30.00
2017-07-19T15:40:58.490Z,29.90
2017-07-19T15:43:26.301Z,29.90
2017-07-19T15:45:53.927Z,29.80
2017-07-19T15:48:21.556Z,29.90
2017-07-19T15:50:49.197Z,29.90
2017-07-19T15:53:16.820Z,29.90
2017-07-19T15:55:45.241Z,29.70
2017-07-19T15:58:12.890Z,29.60
2017-07-19T16:00:40.507Z,29.70
2017-07-19T16:03:08.146Z,29.70
2017-07-19T16:05:35.800Z,29.70
2017-07-19T16:08:03.483Z,29.70
2017-07-19T16:10:31.099Z,29.70
2017-07-19T16:12:58.735Z,29.70
2017-07-19T16:15:26.361Z,29.60
2017-07-19T16:17:54.026Z,29.60
2017-07-19T16:20:21.673Z,29.60
2017-07-19T16:22:49.320Z,29.60
2017-07-19T16:25:16.965Z,29.60
2017-07-19T16:27:44.647Z,29.50
2017-07-19T16:30:12.266Z,29.50
2017-07-19T16:32:39.892Z,29.40
2017-07-19T16:35:07.550Z,29.30
2017-07-19T16:37:35.167Z,29.30
2017-07-19T16:40:03.709Z,29.30
2017-07-19T16:42:31.472Z,29.30
2017-07-19T16:44:59.092Z,29.30
2017-07-19T16:47:26.755Z,29.20
2017-07-19T16:49:54.422Z,29.20
2017-07-19T16:52:22.060Z,29.20
2017-07-19T16:54:49.669Z,29.10
2017-07-19T16:57:17.326Z,29.10
2017-07-19T16:59:45.008Z,29.00
2017-07-19T17:02:13.392Z,29.00
2017-07-19T17:04:41.039Z,29.00
2017-07-19T17:07:08.664Z,29.00
2017-07-19T17:09:37.041Z,29.00
2017-07-19T17:12:04.671Z,28.90
2017-07-19T17:14:33.051Z,29.00
2017-07-19T17:17:00.661Z,28.90
2017-07-19T17:19:28.295Z,28.90
2017-07-19T17:21:55.916Z,29.00
2017-07-19T17:24:23.511Z,28.80
2017-07-19T17:26:51.144Z,28.80
2017-07-19T17:29:18.781Z,28.70
2017-07-19T17:31:46.403Z,28.60
2017-07-19T17:34:14.043Z,28.60
2017-07-19T17:36:41.663Z,28.50
2017-07-19T17:39:10.025Z,28.50
2017-07-19T17:41:38.423Z,28.40
2017-07-19T17:44:06.033Z,28.30
2017-07-19T17:46:34.396Z,28.30
2017-07-19T17:49:02.024Z,28.20
2017-07-19T17:51:29.641Z,28.30
2017-07-19T17:53:57.244Z,28.30
2017-07-19T17:56:24.863Z,28.20
2017-07-19T17:58:53.251Z,28.10
2017-07-19T18:01:20.855Z,28.00
2017-07-19T18:03:48.505Z,28.00
2017-07-19T18:06:16.109Z,27.90
2017-07-19T18:08:44.200Z,27.90
2017-07-19T18:11:12.003Z,27.90
2017-07-19T18:13:39.605Z,27.80
2017-07-19T18:16:07.209Z,27.70
2017-07-19T18:18:35.000Z,27.60
2017-07-19T18:21:02.608Z,27.60
2017-07-19T18:23:30.226Z,27.50
2017-07-19T18:25:57.871Z,27.40
2017-07-19T18:28:26.256Z,27.30
2017-07-19T18:30:53.855Z,27.20
2017-07-19T18:33:21.492Z,27.20
2017-07-19T18:35:49.103Z,27.10
2017-07-19T18:38:16.696Z,27.00
2017-07-19T18:40:44.351Z,26.90
2017-07-19T18:43:12.764Z,26.70
2017-07-19T18:45:40.369Z,26.60
2017-07-19T18:48:08.821Z,26.40
2017-07-19T18:50:37.220Z,26.30
2017-07-19T18:53:04.840Z,26.20
2017-07-19T18:55:33.271Z,26.10
2017-07-19T18:58:01.877Z,26.10
2017-07-19T19:00:30.244Z,26.00
2017-07-19T19:02:57.906Z,25.90
2017-07-19T19:05:25.932Z,25.90
2017-07-19T19:07:54.313Z,25.80
2017-07-19T19:10:21.969Z,25.70
2017-07-19T19:12:49.588Z,25.60
2017-07-19T19:15:17.956Z,25.50
2017-07-19T19:17:46.392Z,25.50
2017-07-19T19:20:14.017Z,25.40
2017-07-19T19:22:41.684Z,25.40
2017-07-19T19:25:09.323Z,25.40
2017-07-19T19:27:36.938Z,25.40
2017-07-19T19:30:04.539Z,25.30
2017-07-19T19:32:32.179Z,25.30
2017-07-19T19:34:59.866Z,25.30
2017-07-19T19:37:27.471Z,25.20
2017-07-19T19:39:55.137Z,25.10
2017-07-19T19:42:22.756Z,25.10
2017-07-19T19:44:50.366Z,25.10
2017-07-19T19:47:18.174Z,25.10
2017-07-19T19:49:46.548Z,25.00
2017-07-19T19:52:14.166Z,25.00
2017-07-19T19:54:41.866Z,25.00
2017-07-19T19:57:09.473Z,24.90
2017-07-19T19:59:37.861Z,24.70
2017-07-19T20:02:06.261Z,24.70
2017-07-19T20:04:33.868Z,24.60
2017-07-19T20:07:01.487Z,24.50
2017-07-19T20:09:29.139Z,24.40
2017-07-19T20:11:56.759Z,24.40
2017-07-19T20:14:24.365Z,24.30
2017-07-19T20:16:52.013Z,24.20
2017-07-19T20:19:19.713Z,24.10
2017-07-19T20:21:47.329Z,24.00
2017-07-19T20:24:15.002Z,23.90
2017-07-19T20:26:42.612Z,23.80
2017-07-19T20:29:10.222Z,23.70
2017-07-19T20:31:38.633Z,23.60
2017-07-19T20:34:06.240Z,23.50
2017-07-19T20:36:34.607Z,23.40
2017-07-19T20:39:02.244Z,23.40
2017-07-19T20:41:30.612Z,23.30
2017-07-19T20:43:58.975Z,23.20
2017-07-19T20:46:27.384Z,23.10
2017-07-19T20:48:55.010Z,23.00
2017-07-19T20:51:22.634Z,23.10
2017-07-19T20:53:50.282Z,23.10
2017-07-19T20:56:18.051Z,23.00
2017-07-19T20:58:45.959Z,23.00
2017-07-19T21:01:13.671Z,22.90
2017-07-19T21:03:41.306Z,22.90
2017-07-19T21:06:08.982Z,22.90
2017-07-19T21:08:36.729Z,22.90
2017-07-19T21:11:04.341Z,22.90
2017-07-19T21:13:31.953Z,22.90
2017-07-19T21:16:00.367Z,22.80
2017-07-19T21:18:27.976Z,22.80
2017-07-19T21:20:55.678Z,22.90
2017-07-19T21:23:23.311Z,22.90
2017-07-19T21:25:50.922Z,22.90
2017-07-19T21:28:18.520Z,22.90
2017-07-19T21:30:46.152Z,22.90
2017-07-19T21:33:13.885Z,22.90
2017-07-19T21:35:41.523Z,22.90
2017-07-19T21:38:09.193Z,22.90
2017-07-19T21:40:36.812Z,22.90
2017-07-19T21:43:04.857Z,22.90
2017-07-19T21:45:32.602Z,22.90
2017-07-19T21:48:01.884Z,22.90
2017-07-19T21:50:29.506Z,22.90
2017-07-19T21:52:57.159Z,22.80
2017-07-19T21:55:25.548Z,22.80
2017-07-19T21:57:53.173Z,22.70
2017-07-19T22:00:20.819Z,22.70
2017-07-19T22:02:49.184Z,22.50
2017-07-19T22:05:17.562Z,22.40
2017-07-19T22:07:45.208Z,22.40
2017-07-19T22:10:13.596Z,22.30
2017-07-19T22:12:41.206Z,22.20
2017-07-19T22:15:09.608Z,22.20
2017-07-19T22:17:37.225Z,22.10
2017-07-19T22:20:05.596Z,22.30
2017-07-19T22:22:33.245Z,22.20
2017-07-19T22:25:00.846Z,22.30
2017-07-19T22:27:28.451Z,22.40
2017-07-19T22:29:56.088Z,22.30
2017-07-19T22:32:23.698Z,22.50
2017-07-19T22:34:51.323Z,22.60
2017-07-19T22:37:18.967Z,22.80
2017-07-19T22:39:46.587Z,22.80
2017-07-19T22:42:14.202Z,22.90
2017-07-19T22:44:41.853Z,23.00
2017-07-19T22:47:09.459Z,23.00
2017-07-19T22:49:37.077Z,23.00
2017-07-19T22:52:04.716Z,22.90
2017-07-19T22:54:32.328Z,22.80
2017-07-19T22:57:00.699Z,22.60
2017-07-19T22:59:28.385Z,22.50
2017-07-19T23:01:55.986Z,22.50
2017-07-19T23:04:24.369Z,22.30
2017-07-19T23:06:52.012Z,22.20
2017-07-19T23:09:19.617Z,22.20
2017-07-19T23:11:47.225Z,22.10
2017-07-19T23:14:14.869Z,22.10
2017-07-19T23:16:42.490Z,22.00
2017-07-19T23:19:10.095Z,22.00
2017-07-19T23:21:37.749Z,22.00
2017-07-19T23:24:05.365Z,21.90
2017-07-19T23:26:32.973Z,21.90
2017-07-19T23:29:00.603Z,21.90
2017-07-19T23:31:28.971Z,21.80
2017-07-19T23:33:57.341Z,21.80
2017-07-19T23:36:24.975Z,21.70
2017-07-19T23:38:53.344Z,21.70
2017-07-19T23:41:21.722Z,21.70
2017-07-19T23:43:49.380Z,21.60
2017-07-19T23:46:16.974Z,21.60
2017-07-19T23:48:44.612Z,21.60
2017-07-19T23:51:12.253Z,21.50
2017-07-19T23:53:39.875Z,21.50
2017-07-19T23:56:07.489Z,21.40
2017-07-19T23:58:35.891Z,21.40
